Ship Status Report: callsign AMOUK29

sailwx.info

Track history (hours):
 
Tides and Currents Weather Stations Pressure Air Temp Water Temp Dewpoint Dewpoint Depression Visibility Wind Speed Wind Dir Waves Ship Positions

Callsign AMOUK29 (name unknown)

Last reported at 2014-Aug-22 20:00 UTC. Time now 2014-Aug-22 21:41 UTC.
Position N 54°36' W 005°54'.

Barometer 1014.3 mb
Air temperature 11.7 ° C
Dewpoint 5.8 ° C

Date/timePositionNaut miles runAvg speedWind from/ knotsBaromVisibWave heightAir tempDewpointWater temp
2014-Aug-22 20:00N 54°36' W 005°54'0 0.0 1014.3 11.7 5.8
2014-Aug-22 19:00N 54°36' W 005°54'0 0.0 1014.1 12.6 5.2
2014-Aug-22 18:00N 54°36' W 005°54'0 0.0 1013.9 13.6 4.6
2014-Aug-22 17:00N 54°36' W 005°54'0 0.0 1013.9 14.9 4.4
2014-Aug-22 16:00N 54°36' W 005°54'0 0.0 1013.7 14.9 5.1
2014-Aug-22 15:00N 54°36' W 005°54'0 0.0 1013.7 15.0 4.7
2014-Aug-22 14:00N 54°36' W 005°54'0 0.0 1013.6 14.8 5.3
2014-Aug-22 12:00N 54°36' W 005°54'0 0.0 1013.1 14.5 5.4
2014-Aug-22 11:00N 54°36' W 005°54'0 0.0 1013.0 12.9 5.8
2014-Aug-22 10:00N 54°36' W 005°54'0 0.0 1012.7 12.3 8.2
2014-Aug-22 09:00N 54°36' W 005°54'0 0.0 1012.4 12.9 6.9
2014-Aug-22 08:00N 54°36' W 005°54'0 0.0 1012.1 12.0 7.0
2014-Aug-22 07:00N 54°36' W 005°54'0 0.0 1011.7 10.2 6.2
2014-Aug-22 03:00N 54°36' W 005°54'0 0.0 1010.6 10.9 7.2
2014-Aug-22 01:00N 54°36' W 005°54'0 0.0 1010.3 11.1 7.1
2014-Aug-22 00:00N 54°36' W 005°54'0 0.0 1010.0 10.9 7.5
2014-Aug-21 23:00N 54°36' W 005°54'0 0.0 1009.7 11.5 7.6
2014-Aug-21 22:00N 54°36' W 005°54'46 1.5 1009.3 11.6 7.6
2014-Aug-20 16:00N 54°06' W 004°54'1413.9 1018.0 13.1 7.0
2014-Aug-20 15:00N 53°54' W 004°42'9 9.3 1018.4 13.2 7.5
2014-Aug-20 14:00N 53°48' W 004°30'7 7.1 1018.2 13.2 7.6
2014-Aug-20 13:00N 53°48' W 004°18'9 9.3 1018.3 13.3 7.8
2014-Aug-20 12:00N 53°42' W 004°06'1212.2 1017.7 13.5 6.6
2014-Aug-20 11:00N 53°36' W 003°48'15 7.7 1017.3 13.3 8.2
2014-Aug-20 09:00N 53°30' W 003°24'0 0.0 1016.2 12.7 7.5
2014-Aug-20 08:00N 53°30' W 003°24'4 1.8 1016.5 12.4 8.7
2014-Aug-20 06:00N 53°30' W 003°18'4 3.6 1015.9 12.7 8.3
2014-Aug-20 05:00N 53°30' W 003°24'1110.7 1016.3 10.3 7.5
2014-Aug-20 04:00N 53°30' W 003°42'7 7.1 1016.6 13.0 7.2
2014-Aug-20 03:00N 53°30' W 003°54'7 7.1 1017.1 12.9 6.9
2014-Aug-20 02:00N 53°30' W 004°06'7 7.1 1017.4 12.8 7.5
2014-Aug-20 01:00N 53°30' W 004°18'4 3.6 1017.5 12.8 7.4
2014-Aug-20 00:00N 53°30' W 004°24'7 7.0 1017.7 13.0 7.4
2014-Aug-19 23:00N 53°36' W 004°30'4 3.6 1017.7 13.9 7.7
2014-Aug-19 22:00N 53°36' W 004°36'9 9.3 1017.7 11.9 8.3
2014-Aug-19 21:00N 53°42' W 004°48'9 9.3 1017.3 12.6 7.8
2014-Aug-19 20:00N 53°48' W 005°00'7 7.1 1017.1 12.2 8.2
2014-Aug-19 19:00N 53°48' W 005°12'1110.6 1016.9 12.7 7.3
2014-Aug-19 18:00N 53°48' W 005°30'1110.6 1016.6 12.7 7.4
2014-Aug-19 17:00N 53°48' W 005°48'7 7.1 1016.6 13.0 6.3
2014-Aug-19 16:00N 53°48' W 006°00'4 3.5 1016.4 13.8 6.8
2014-Aug-19 15:00N 53°48' W 006°06'7 7.0 1015.8 13.3 7.2
2014-Aug-19 14:00N 53°42' W 006°00'1212.2 1016.0 13.5 6.1
2014-Aug-19 13:00N 53°48' W 005°42'4 3.5 1015.4 13.2 6.8
2014-Aug-19 12:00N 53°48' W 005°36'0 0.0 1015.7 13.8 7.1
2014-Aug-19 11:00N 53°48' W 005°36'0 0.0 1015.2 12.5 5.5
2014-Aug-19 10:00N 53°48' W 005°36'4 3.5 1015.2 11.9 6.9
2014-Aug-19 09:00N 53°48' W 005°42'4 3.5 1014.4 11.5 6.7
2014-Aug-19 08:00N 53°48' W 005°36'0 0.0 1014.1 11.8 7.5
2014-Aug-19 07:00N 53°48' W 005°36'6 3.0 1013.4 10.9 6.8
2014-Aug-19 05:00N 53°54' W 005°36'7 7.0 1012.8 10.9 7.1
2014-Aug-19 04:00N 54°00' W 005°30'7 7.0 1012.5 10.9 6.6
2014-Aug-19 03:00N 54°06' W 005°24'1312.5 1012.6 10.6 7.5
2014-Aug-19 02:00N 54°18' W 005°18'6 6.0 1012.6 10.4 7.0
2014-Aug-19 01:00N 54°24' W 005°18'1212.5 1013.1 10.7 6.5
2014-Aug-19 00:00N 54°36' W 005°24'9 9.2 1013.1 11.0 6.8
2014-Aug-18 23:00N 54°42' W 005°36'7 6.9 1013.2 10.9 6.3
2014-Aug-18 22:00N 54°42' W 005°48'7 6.9 1013.7 10.6 6.0
2014-Aug-18 21:00N 54°36' W 005°54'0 0.0 1013.8 11.1 6.2
2014-Aug-18 20:00N 54°36' W 005°54'0 0.0 1013.7 11.3 6.0
2014-Aug-18 19:00N 54°36' W 005°54'0 0.0 1013.6 11.9 6.1
2014-Aug-18 18:00N 54°36' W 005°54'0 0.0 1013.9 12.6 5.0
2014-Aug-18 17:00N 54°36' W 005°54'0 0.0 1014.0 12.2 6.8
2014-Aug-18 16:00N 54°36' W 005°54'0 0.0 1013.9 13.8 4.1
2014-Aug-18 15:00N 54°36' W 005°54'0 0.0 1014.1 13.8 4.8
2014-Aug-18 14:00N 54°36' W 005°54'0 0.0 1013.7 14.3 5.6
2014-Aug-18 13:00N 54°36' W 005°54'0 0.0 1013.5 15.0 6.5
2014-Aug-18 12:00N 54°36' W 005°54'0 0.0 1013.5 13.8 5.8
2014-Aug-18 11:00N 54°36' W 005°54'0 0.0 1013.5 13.8 5.9
2014-Aug-18 10:00N 54°36' W 005°54'0 0.0 1013.3 12.7 5.7
2014-Aug-18 09:00N 54°36' W 005°54'0 0.0 1013.0 12.6 5.8
2014-Aug-18 07:00N 54°36' W 005°54'0 0.0 1011.9 12.3 7.5
2014-Aug-18 05:00N 54°36' W 005°54'0 0.0 1010.4 12.0 7.6
2014-Aug-18 04:00N 54°36' W 005°54'0 0.0 1010.0 12.4 7.8
2014-Aug-18 03:00N 54°36' W 005°54'0 0.0 1009.7 12.8 8.4
2014-Aug-18 02:00N 54°36' W 005°54'0 0.0 1008.9 13.0 9.1
2014-Aug-18 01:00N 54°36' W 005°54'0 0.0 1008.7 13.2 9.6
2014-Aug-18 00:00N 54°36' W 005°54'0 0.0 1008.0 13.3 9.8
2014-Aug-17 23:00N 54°36' W 005°54'0 0.0 1007.4 12.910.3
2014-Aug-17 22:00N 54°36' W 005°54'0 0.0 1007.3 12.710.3
2014-Aug-17 21:00N 54°36' W 005°54'0 0.0 1006.6 12.410.0
2014-Aug-17 20:00N 54°36' W 005°54'0 0.0 1006.7 12.210.0
2014-Aug-17 19:00N 54°36' W 005°54'0 0.0 1006.6 12.3 9.4
2014-Aug-17 18:00N 54°36' W 005°54'0 0.0 1006.6 12.9 8.6
2014-Aug-17 17:00N 54°36' W 005°54'0 0.0 1006.7 13.2 8.2
2014-Aug-17 16:00N 54°36' W 005°54'0 0.0 1007.1 13.4 8.7
2014-Aug-17 15:00N 54°36' W 005°54'0 0.0 1006.9 14.6 6.3
2014-Aug-17 13:00N 54°36' W 005°54'0 0.0 1006.6 15.4 4.3
2014-Aug-17 12:00N 54°36' W 005°54'0 0.0 1007.0 15.0 6.4
2014-Aug-17 11:00N 54°36' W 005°54'0 0.0 1007.2 12.2 8.8
2014-Aug-17 10:00N 54°36' W 005°54'0 0.0 1007.0 13.8 8.1
2014-Aug-17 09:00N 54°36' W 005°54'0 0.0 1007.2 12.6 9.3
2014-Aug-17 08:00N 54°36' W 005°54'0 0.0 1006.9 13.3 8.1
2014-Aug-17 07:00N 54°36' W 005°54'0 0.0 1006.9 12.5 8.4
2014-Aug-17 05:00N 54°36' W 005°54'0 0.0 1007.4 12.2 8.8
2014-Aug-17 03:00N 54°36' W 005°54'0 0.0 1008.3 12.3 8.7
2014-Aug-17 02:00N 54°36' W 005°54'0 0.0 1009.0 12.5 8.7
2014-Aug-17 01:00N 54°36' W 005°54'0 0.0 1009.6 12.4 8.9
2014-Aug-17 00:00N 54°36' W 005°54'0 0.0 1010.3 12.2 9.2
2014-Aug-16 23:00N 54°36' W 005°54'0 0.0 1010.7 13.6 8.8
2014-Aug-16 22:00N 54°36' W 005°54'0 0.0 1011.2 13.810.0
2014-Aug-16 21:00N 54°36' W 005°54'0 0.0 1011.7 13.711.1
2014-Aug-16 19:00N 54°36' W 005°54'0 0.0 1012.1 15.111.8
2014-Aug-16 18:00N 54°36' W 005°54'0 0.0 1012.5 15.611.8
2014-Aug-16 17:00N 54°36' W 005°54'0 0.0 1012.9 15.911.9
2014-Aug-16 13:00N 54°36' W 005°54'0 0.0 1015.1 15.010.7
2014-Aug-16 11:00N 54°36' W 005°54'0 0.0 1016.6 14.3 9.9
2014-Aug-16 10:00N 54°36' W 005°54'0 0.0 1017.0 14.2 9.8
2014-Aug-16 09:00N 54°36' W 005°54'0 0.0 1017.6 13.110.2
2014-Aug-16 07:00N 54°36' W 005°54'0 0.0 1018.0 12.7 9.1
2014-Aug-16 06:00N 54°36' W 005°54'0 0.0 1018.2 12.7 9.0
2014-Aug-16 05:00N 54°36' W 005°54'0 0.0 1018.4 12.9 9.1
2014-Aug-16 03:00N 54°36' W 005°54'0 0.0 1019.4 12.7 9.6
2014-Aug-16 01:00N 54°36' W 005°54'0 0.0 1020.2 13.3 9.5
2014-Aug-15 23:00N 54°36' W 005°54'0 0.0 1021.2 13.9 9.0
2014-Aug-15 21:00N 54°36' W 005°54'0 0.0 1021.7 13.8 7.0
2014-Aug-15 20:00N 54°36' W 005°54'0 0.0 1021.5 14.1 6.6
2014-Aug-15 19:00N 54°36' W 005°54'0 0.0 1021.4 14.7 7.5
2014-Aug-14 08:00N 54°36' W 005°54'0 0.0 1009.5
2014-Aug-14 05:00N 54°36' W 005°54'0 0.0 1008.2
2014-Aug-14 04:00N 54°36' W 005°54'0 0.0 1007.9
2014-Aug-14 03:00N 54°36' W 005°54'0 0.0 1007.7
2014-Aug-14 02:00N 54°36' W 005°54'0 0.0 1007.6
2014-Aug-14 01:00N 54°36' W 005°54'0 0.0 1007.6
2014-Aug-14 00:00N 54°36' W 005°54'0 0.0 1007.7
2014-Aug-13 23:00N 54°36' W 005°54'0 0.0 1007.6
2014-Aug-13 22:00N 54°36' W 005°54'0 0.0 1007.4
2014-Aug-13 21:00N 54°36' W 005°54'0 0.0 1007.5
2014-Aug-13 20:00N 54°36' W 005°54'0 0.0 1007.4
2014-Aug-13 19:00N 54°36' W 005°54'0 0.0 1006.9
2014-Aug-13 18:00N 54°36' W 005°54'0 0.0 1006.9
2014-Aug-13 17:00N 54°36' W 005°54'0 0.0 1006.6
2014-Aug-13 16:00N 54°36' W 005°54'0 0.0 1006.2
2014-Aug-13 15:00N 54°36' W 005°54'0 0.0 1005.9
2014-Aug-13 13:00N 54°36' W 005°54'0 0.0 1005.3
2014-Aug-13 12:00N 54°36' W 005°54'0 0.0 1004.6
2014-Aug-13 11:00N 54°36' W 005°54'0 0.0 1004.0
2014-Aug-13 10:00N 54°36' W 005°54'0 0.0 1003.8
2014-Aug-13 08:00N 54°36' W 005°54'0 0.0 1003.1
2014-Aug-13 07:00N 54°36' W 005°54'0 0.0 1002.7
2014-Aug-13 06:00N 54°36' W 005°54'0 0.0 1002.1
2014-Aug-13 04:00N 54°36' W 005°54'0 0.0 1001.0
2014-Aug-13 03:00N 54°36' W 005°54'0 0.0 1000.9
2014-Aug-13 02:00N 54°36' W 005°54'0 0.0 1000.9
2014-Aug-13 01:00N 54°36' W 005°54'0 0.0 1000.8
2014-Aug-13 00:00N 54°36' W 005°54'0 0.0 1000.6
2014-Aug-12 23:00N 54°36' W 005°54'0 0.0 1000.9
2014-Aug-12 22:00N 54°36' W 005°54'0 0.0 1000.8
2014-Aug-12 21:00N 54°36' W 005°54'0 0.0 1000.6
2014-Aug-12 20:00N 54°36' W 005°54'   1000.3
Track history (hours):
 
Tides and Currents Weather Stations Pressure Air Temp Water Temp Dewpoint Dewpoint Depression Visibility Wind Speed Wind Dir Waves Ship Positions

Callsign AMOUK29 (name unknown)

Last reported at 2014-Aug-22 20:00 UTC. Time now 2014-Aug-22 21:41 UTC.
Position N 54°36' W 005°54'.

Barometer 1014.3 mb
Air temperature 11.7 ° C
Dewpoint 5.8 ° C

Date/timePositionNaut miles runAvg speedWind from/ knotsBaromVisibWave heightAir tempDewpointWater temp
2014-Aug-22 20:00N 54°36' W 005°54'0 0.0 1014.3 11.7 5.8
2014-Aug-22 19:00N 54°36' W 005°54'0 0.0 1014.1 12.6 5.2
2014-Aug-22 18:00N 54°36' W 005°54'0 0.0 1013.9 13.6 4.6
2014-Aug-22 17:00N 54°36' W 005°54'0 0.0 1013.9 14.9 4.4
2014-Aug-22 16:00N 54°36' W 005°54'0 0.0 1013.7 14.9 5.1
2014-Aug-22 15:00N 54°36' W 005°54'0 0.0 1013.7 15.0 4.7
2014-Aug-22 14:00N 54°36' W 005°54'0 0.0 1013.6 14.8 5.3
2014-Aug-22 12:00N 54°36' W 005°54'0 0.0 1013.1 14.5 5.4
2014-Aug-22 11:00N 54°36' W 005°54'0 0.0 1013.0 12.9 5.8
2014-Aug-22 10:00N 54°36' W 005°54'0 0.0 1012.7 12.3 8.2
2014-Aug-22 09:00N 54°36' W 005°54'0 0.0 1012.4 12.9 6.9
2014-Aug-22 08:00N 54°36' W 005°54'0 0.0 1012.1 12.0 7.0
2014-Aug-22 07:00N 54°36' W 005°54'0 0.0 1011.7 10.2 6.2
2014-Aug-22 03:00N 54°36' W 005°54'0 0.0 1010.6 10.9 7.2
2014-Aug-22 01:00N 54°36' W 005°54'0 0.0 1010.3 11.1 7.1
2014-Aug-22 00:00N 54°36' W 005°54'0 0.0 1010.0 10.9 7.5
2014-Aug-21 23:00N 54°36' W 005°54'0 0.0 1009.7 11.5 7.6
2014-Aug-21 22:00N 54°36' W 005°54'46 1.5 1009.3 11.6 7.6
2014-Aug-20 16:00N 54°06' W 004°54'1413.9 1018.0 13.1 7.0
2014-Aug-20 15:00N 53°54' W 004°42'9 9.3 1018.4 13.2 7.5
2014-Aug-20 14:00N 53°48' W 004°30'7 7.1 1018.2 13.2 7.6
2014-Aug-20 13:00N 53°48' W 004°18'9 9.3 1018.3 13.3 7.8
2014-Aug-20 12:00N 53°42' W 004°06'1212.2 1017.7 13.5 6.6
2014-Aug-20 11:00N 53°36' W 003°48'15 7.7 1017.3 13.3 8.2
2014-Aug-20 09:00N 53°30' W 003°24'0 0.0 1016.2 12.7 7.5
2014-Aug-20 08:00N 53°30' W 003°24'4 1.8 1016.5 12.4 8.7
2014-Aug-20 06:00N 53°30' W 003°18'4 3.6 1015.9 12.7 8.3
2014-Aug-20 05:00N 53°30' W 003°24'1110.7 1016.3 10.3 7.5
2014-Aug-20 04:00N 53°30' W 003°42'7 7.1 1016.6 13.0 7.2
2014-Aug-20 03:00N 53°30' W 003°54'7 7.1 1017.1 12.9 6.9
2014-Aug-20 02:00N 53°30' W 004°06'7 7.1 1017.4 12.8 7.5
2014-Aug-20 01:00N 53°30' W 004°18'4 3.6 1017.5 12.8 7.4
2014-Aug-20 00:00N 53°30' W 004°24'7 7.0 1017.7 13.0 7.4
2014-Aug-19 23:00N 53°36' W 004°30'4 3.6 1017.7 13.9 7.7
2014-Aug-19 22:00N 53°36' W 004°36'9 9.3 1017.7 11.9 8.3
2014-Aug-19 21:00N 53°42' W 004°48'9 9.3 1017.3 12.6 7.8
2014-Aug-19 20:00N 53°48' W 005°00'7 7.1 1017.1 12.2 8.2
2014-Aug-19 19:00N 53°48' W 005°12'1110.6 1016.9 12.7 7.3
2014-Aug-19 18:00N 53°48' W 005°30'1110.6 1016.6 12.7 7.4
2014-Aug-19 17:00N 53°48' W 005°48'7 7.1 1016.6 13.0 6.3
2014-Aug-19 16:00N 53°48' W 006°00'4 3.5 1016.4 13.8 6.8
2014-Aug-19 15:00N 53°48' W 006°06'7 7.0 1015.8 13.3 7.2
2014-Aug-19 14:00N 53°42' W 006°00'1212.2 1016.0 13.5 6.1
2014-Aug-19 13:00N 53°48' W 005°42'4 3.5 1015.4 13.2 6.8
2014-Aug-19 12:00N 53°48' W 005°36'0 0.0 1015.7 13.8 7.1
2014-Aug-19 11:00N 53°48' W 005°36'0 0.0 1015.2 12.5 5.5
2014-Aug-19 10:00N 53°48' W 005°36'4 3.5 1015.2 11.9 6.9
2014-Aug-19 09:00N 53°48' W 005°42'4 3.5 1014.4 11.5 6.7
2014-Aug-19 08:00N 53°48' W 005°36'0 0.0 1014.1 11.8 7.5
2014-Aug-19 07:00N 53°48' W 005°36'6 3.0 1013.4 10.9 6.8
2014-Aug-19 05:00N 53°54' W 005°36'7 7.0 1012.8 10.9 7.1
2014-Aug-19 04:00N 54°00' W 005°30'7 7.0 1012.5 10.9 6.6
2014-Aug-19 03:00N 54°06' W 005°24'1312.5 1012.6 10.6 7.5
2014-Aug-19 02:00N 54°18' W 005°18'6 6.0 1012.6 10.4 7.0
2014-Aug-19 01:00N 54°24' W 005°18'1212.5 1013.1 10.7 6.5
2014-Aug-19 00:00N 54°36' W 005°24'9 9.2 1013.1 11.0 6.8
2014-Aug-18 23:00N 54°42' W 005°36'7 6.9 1013.2 10.9 6.3
2014-Aug-18 22:00N 54°42' W 005°48'7 6.9 1013.7 10.6 6.0
2014-Aug-18 21:00N 54°36' W 005°54'0 0.0 1013.8 11.1 6.2
2014-Aug-18 20:00N 54°36' W 005°54'0 0.0 1013.7 11.3 6.0
2014-Aug-18 19:00N 54°36' W 005°54'0 0.0 1013.6 11.9 6.1
2014-Aug-18 18:00N 54°36' W 005°54'0 0.0 1013.9 12.6 5.0
2014-Aug-18 17:00N 54°36' W 005°54'0 0.0 1014.0 12.2 6.8
2014-Aug-18 16:00N 54°36' W 005°54'0 0.0 1013.9 13.8 4.1
2014-Aug-18 15:00N 54°36' W 005°54'0 0.0 1014.1 13.8 4.8
2014-Aug-18 14:00N 54°36' W 005°54'0 0.0 1013.7 14.3 5.6
2014-Aug-18 13:00N 54°36' W 005°54'0 0.0 1013.5 15.0 6.5
2014-Aug-18 12:00N 54°36' W 005°54'0 0.0 1013.5 13.8 5.8
2014-Aug-18 11:00N 54°36' W 005°54'0 0.0 1013.5 13.8 5.9
2014-Aug-18 10:00N 54°36' W 005°54'0 0.0 1013.3 12.7 5.7
2014-Aug-18 09:00N 54°36' W 005°54'0 0.0 1013.0 12.6 5.8
2014-Aug-18 07:00N 54°36' W 005°54'0 0.0 1011.9 12.3 7.5
2014-Aug-18 05:00N 54°36' W 005°54'0 0.0 1010.4 12.0 7.6
2014-Aug-18 04:00N 54°36' W 005°54'0 0.0 1010.0 12.4 7.8
2014-Aug-18 03:00N 54°36' W 005°54'0 0.0 1009.7 12.8 8.4
2014-Aug-18 02:00N 54°36' W 005°54'0 0.0 1008.9 13.0 9.1
2014-Aug-18 01:00N 54°36' W 005°54'0 0.0 1008.7 13.2 9.6
2014-Aug-18 00:00N 54°36' W 005°54'0 0.0 1008.0 13.3 9.8
2014-Aug-17 23:00N 54°36' W 005°54'0 0.0 1007.4 12.910.3
2014-Aug-17 22:00N 54°36' W 005°54'0 0.0 1007.3 12.710.3
2014-Aug-17 21:00N 54°36' W 005°54'0 0.0 1006.6 12.410.0
2014-Aug-17 20:00N 54°36' W 005°54'0 0.0 1006.7 12.210.0
2014-Aug-17 19:00N 54°36' W 005°54'0 0.0 1006.6 12.3 9.4
2014-Aug-17 18:00N 54°36' W 005°54'0 0.0 1006.6 12.9 8.6
2014-Aug-17 17:00N 54°36' W 005°54'0 0.0 1006.7 13.2 8.2
2014-Aug-17 16:00N 54°36' W 005°54'0 0.0 1007.1 13.4 8.7
2014-Aug-17 15:00N 54°36' W 005°54'0 0.0 1006.9 14.6 6.3
2014-Aug-17 13:00N 54°36' W 005°54'0 0.0 1006.6 15.4 4.3
2014-Aug-17 12:00N 54°36' W 005°54'0 0.0 1007.0 15.0 6.4
2014-Aug-17 11:00N 54°36' W 005°54'0 0.0 1007.2 12.2 8.8
2014-Aug-17 10:00N 54°36' W 005°54'0 0.0 1007.0 13.8 8.1
2014-Aug-17 09:00N 54°36' W 005°54'0 0.0 1007.2 12.6 9.3
2014-Aug-17 08:00N 54°36' W 005°54'0 0.0 1006.9 13.3 8.1
2014-Aug-17 07:00N 54°36' W 005°54'0 0.0 1006.9 12.5 8.4
2014-Aug-17 05:00N 54°36' W 005°54'0 0.0 1007.4 12.2 8.8
2014-Aug-17 03:00N 54°36' W 005°54'0 0.0 1008.3 12.3 8.7
2014-Aug-17 02:00N 54°36' W 005°54'0 0.0 1009.0 12.5 8.7
2014-Aug-17 01:00N 54°36' W 005°54'0 0.0 1009.6 12.4 8.9
2014-Aug-17 00:00N 54°36' W 005°54'0 0.0 1010.3 12.2 9.2
2014-Aug-16 23:00N 54°36' W 005°54'0 0.0 1010.7 13.6 8.8
2014-Aug-16 22:00N 54°36' W 005°54'0 0.0 1011.2 13.810.0
2014-Aug-16 21:00N 54°36' W 005°54'0 0.0 1011.7 13.711.1
2014-Aug-16 19:00N 54°36' W 005°54'0 0.0 1012.1 15.111.8
2014-Aug-16 18:00N 54°36' W 005°54'0 0.0 1012.5 15.611.8
2014-Aug-16 17:00N 54°36' W 005°54'0 0.0 1012.9 15.911.9
2014-Aug-16 13:00N 54°36' W 005°54'0 0.0 1015.1 15.010.7
2014-Aug-16 11:00N 54°36' W 005°54'0 0.0 1016.6 14.3 9.9
2014-Aug-16 10:00N 54°36' W 005°54'0 0.0 1017.0 14.2 9.8
2014-Aug-16 09:00N 54°36' W 005°54'0 0.0 1017.6 13.110.2
2014-Aug-16 07:00N 54°36' W 005°54'0 0.0 1018.0 12.7 9.1
2014-Aug-16 06:00N 54°36' W 005°54'0 0.0 1018.2 12.7 9.0
2014-Aug-16 05:00N 54°36' W 005°54'0 0.0 1018.4 12.9 9.1
2014-Aug-16 03:00N 54°36' W 005°54'0 0.0 1019.4 12.7 9.6
2014-Aug-16 01:00N 54°36' W 005°54'0 0.0 1020.2 13.3 9.5
2014-Aug-15 23:00N 54°36' W 005°54'0 0.0 1021.2 13.9 9.0
2014-Aug-15 21:00N 54°36' W 005°54'0 0.0 1021.7 13.8 7.0
2014-Aug-15 20:00N 54°36' W 005°54'0 0.0 1021.5 14.1 6.6
2014-Aug-15 19:00N 54°36' W 005°54'0 0.0 1021.4 14.7 7.5
2014-Aug-14 08:00N 54°36' W 005°54'0 0.0 1009.5
2014-Aug-14 05:00N 54°36' W 005°54'0 0.0 1008.2
2014-Aug-14 04:00N 54°36' W 005°54'0 0.0 1007.9
2014-Aug-14 03:00N 54°36' W 005°54'0 0.0 1007.7
2014-Aug-14 02:00N 54°36' W 005°54'0 0.0 1007.6
2014-Aug-14 01:00N 54°36' W 005°54'0 0.0 1007.6
2014-Aug-14 00:00N 54°36' W 005°54'0 0.0 1007.7
2014-Aug-13 23:00N 54°36' W 005°54'0 0.0 1007.6
2014-Aug-13 22:00N 54°36' W 005°54'0 0.0 1007.4
2014-Aug-13 21:00N 54°36' W 005°54'0 0.0 1007.5
2014-Aug-13 20:00N 54°36' W 005°54'0 0.0 1007.4
2014-Aug-13 19:00N 54°36' W 005°54'0 0.0 1006.9
2014-Aug-13 18:00N 54°36' W 005°54'0 0.0 1006.9
2014-Aug-13 17:00N 54°36' W 005°54'0 0.0 1006.6
2014-Aug-13 16:00N 54°36' W 005°54'0 0.0 1006.2
2014-Aug-13 15:00N 54°36' W 005°54'0 0.0 1005.9
2014-Aug-13 13:00N 54°36' W 005°54'0 0.0 1005.3
2014-Aug-13 12:00N 54°36' W 005°54'0 0.0 1004.6
2014-Aug-13 11:00N 54°36' W 005°54'0 0.0 1004.0
2014-Aug-13 10:00N 54°36' W 005°54'0 0.0 1003.8
2014-Aug-13 08:00N 54°36' W 005°54'0 0.0 1003.1
2014-Aug-13 07:00N 54°36' W 005°54'0 0.0 1002.7
2014-Aug-13 06:00N 54°36' W 005°54'0 0.0 1002.1
2014-Aug-13 04:00N 54°36' W 005°54'0 0.0 1001.0
2014-Aug-13 03:00N 54°36' W 005°54'0 0.0 1000.9
2014-Aug-13 02:00N 54°36' W 005°54'0 0.0 1000.9
2014-Aug-13 01:00N 54°36' W 005°54'0 0.0 1000.8
2014-Aug-13 00:00N 54°36' W 005°54'0 0.0 1000.6
2014-Aug-12 23:00N 54°36' W 005°54'0 0.0 1000.9
2014-Aug-12 22:00N 54°36' W 005°54'0 0.0 1000.8
2014-Aug-12 21:00N 54°36' W 005°54'0 0.0 1000.6
2014-Aug-12 20:00N 54°36' W 005°54'   1000.3

Dump ship's entire track history